Latest Weather Observations for Orbost

IDV60801

Issued at 3:02 pm EDT Wednesday 28 January 2015 (issued every 30 minutes, with the page automatically refreshed every 10 minutes)

About weather observations | Map of weather stations | Latest weather observations for VIC | Other Formats
Station Details ID: 084145 Name: ORBOST Lat: -37.69 Lon: 148.47 Height: 62.65 m
Data from the previous 72 hours. | See also: Recent months at Orbost
Date/Time
EDT
Temp
°C
App
Temp
°C
Dew
Point
Rel
Hum
%
Delta-T
°C
Wind Press
QNH
hPa
Press
MSL
hPa
Rain
since 9 am
mm
Dir
 
Spd
km/h
Gust
km/h
Spd
kts
Gust
kts
28/03:00pm 20.2 17.6 11.9 59 4.6 SSE 17 30 9 16 1018.6 1018.4 0.2
28/02:30pm 20.0 18.0 11.5 58 4.7 SSE 13 26 7 14 1018.6 1018.4 0.2
28/02:00pm 20.3 17.6 13.0 63 4.1 SSE 19 32 10 17 1018.5 1018.3 0.2
28/01:30pm 20.0 18.3 13.5 66 3.7 SSE 15 24 8 13 1018.6 1018.4 0.2
28/01:00pm 19.4 18.2 12.9 66 3.7 SSE 11 22 6 12 1018.7 1018.5 0.2
28/12:30pm 18.7 16.3 12.7 68 3.4 S 17 30 9 16 1018.7 1018.5 0.2
28/12:00pm 20.1 18.3 12.1 60 4.5 S 13 24 7 13 1018.7 1018.5 0.2
28/11:30am 19.4 17.8 12.9 66 3.7 S 13 24 7 13 1018.7 1018.5 0.2
28/11:00am 18.9 18.2 13.1 69 3.3 S 9 13 5 7 1018.6 1018.4 0.2
28/10:30am 17.5 18.6 15.7 89 1.1 NW 4 7 2 4 1018.9 1018.7 0.2
28/10:00am 16.1 16.9 14.8 92 0.7 NW 4 6 2 3 1018.8 1018.6 0.0
28/09:30am 15.8 16.7 15.2 96 0.3 WNW 4 6 2 3 1018.6 1018.4 0.0
28/09:00am 15.1 15.8 14.6 97 0.3 NW 4 6 2 3 1018.4 1018.2 5.4
28/08:30am 14.9 16.3 14.3 96 0.3 CALM 0 0 0 0 1018.3 1018.1 5.4
28/08:00am 14.9 15.2 14.4 97 0.3 WSW 6 7 3 4 1018.2 1018.0 4.4
28/07:30am 14.9 15.6 14.4 97 0.3 WNW 4 6 2 3 1017.7 1017.5 3.8
28/07:00am 14.4 14.8 13.8 96 0.3 N 4 6 2 3 1017.5 1017.3 3.8
28/06:30am 14.4 14.8 13.8 96 0.3 NNW 4 4 2 2 1017.2 1017.0 3.6
28/06:00am 14.5 14.9 13.7 95 0.4 N 4 6 2 3 1016.9 1016.7 2.2
28/05:30am 14.6 15.0 13.6 94 0.6 ENE 4 6 2 3 1016.7 1016.5 1.2
28/05:00am 14.3 14.6 13.5 95 0.4 NW 4 6 2 3 1016.5 1016.3 1.2
28/04:30am 14.2 14.6 13.6 96 0.3 NNW 4 6 2 3 1016.4 1016.2 1.2
28/04:00am 14.6 15.9 14.0 96 0.3 CALM 0 0 0 0 1016.4 1016.2 1.2
28/03:30am 14.5 15.7 13.9 96 0.3 CALM 0 0 0 0 1016.7 1016.5 1.2
28/03:00am 14.5 15.7 13.9 96 0.3 CALM 0 0 0 0 1016.8 1016.6 1.2
28/02:30am 14.5 15.7 13.9 96 0.3 CALM 0 4 0 2 1017.0 1016.8 1.2
28/02:00am 14.4 15.6 13.8 96 0.3 CALM 0 0 0 0 1017.2 1017.0 1.2
28/01:30am 14.4 15.6 13.8 96 0.3 CALM 0 0 0 0 1017.3 1017.1 1.2
28/01:00am 14.4 15.6 13.8 96 0.3 CALM 0 0 0 0 1017.4 1017.2 1.2
28/12:30am 14.4 15.5 13.6 95 0.4 CALM 0 0 0 0 1017.4 1017.2 1.2
28/12:00am 14.5 15.6 13.5 94 0.6 CALM 0 2 0 1 1017.5 1017.3 1.2
 
Date/Time
EDT
Temp
°C
App
Temp
°C
Dew
Point
Rel
Hum
%
Delta-T
°C
Wind Press
QNH
hPa
Press
MSL
hPa
Rain
since 9 am
mm
Dir
 
Spd
km/h
Gust
km/h
Spd
kts
Gust
kts
27/11:30pm 14.7 15.9 13.7 94 0.6 CALM 0 0 0 0 1017.5 1017.3 1.2
27/11:00pm 14.8 15.3 14.0 95 0.5 SSW 4 6 2 3 1017.4 1017.2 1.2
27/10:30pm 15.1 16.4 14.1 94 0.6 CALM 0 0 0 0 1017.4 1017.2 1.0
27/10:00pm 15.0 16.3 14.0 94 0.6 CALM 0 2 0 1 1017.4 1017.2 1.0
27/09:30pm 15.1 16.4 14.1 94 0.6 CALM 0 0 0 0 1017.2 1017.0 1.0
27/09:00pm 15.0 16.3 14.2 95 0.5 CALM 0 0 0 0 1017.0 1016.8 1.0
27/08:30pm 15.3 16.7 14.5 95 0.5 CALM 0 0 0 0 1016.8 1016.6 0.6
27/08:00pm 15.4 16.2 14.8 96 0.3 E 4 6 2 3 1016.7 1016.5 0.6
27/07:30pm 15.4 16.2 14.9 97 0.3 S 4 6 2 3 1016.3 1016.1 0.6
27/07:00pm 15.3 16.1 14.8 97 0.3 S 4 6 2 3 1016.0 1015.8 0.6
27/06:30pm 14.5 14.0 13.7 95 0.4 SSW 9 17 5 9 1015.9 1015.7 0.4
27/06:00pm 14.8 14.3 13.7 93 0.6 S 9 17 5 9 1015.9 1015.7 0.2
27/05:30pm 15.9 15.2 13.2 84 1.5 S 9 15 5 8 1015.9 1015.7 0.0
27/05:00pm 16.4 15.4 12.2 76 2.3 SE 9 17 5 9 1016.0 1015.8 0.0
27/04:30pm 17.9 17.0 11.5 66 3.5 SSE 7 13 4 7 1015.8 1015.6 0.0
27/04:00pm 18.1 16.8 11.4 65 3.7 SSE 9 19 5 10 1015.8 1015.6 0.0
27/03:30pm 17.6 15.9 11.2 66 3.5 SSE 11 20 6 11 1015.9 1015.7 0.0
27/03:00pm 17.8 16.5 11.4 66 3.5 SSE 9 19 5 10 1015.8 1015.6 0.0
27/02:30pm 18.1 16.9 11.7 66 3.5 SSE 9 17 5 9 1015.7 1015.5 0.0
27/02:00pm 18.6 18.1 11.9 65 3.7 SSE 6 11 3 6 1015.7 1015.5 0.0
27/01:30pm 18.9 18.3 11.7 63 4.0 ESE 6 11 3 6 1015.8 1015.6 0.0
27/01:00pm 19.2 18.5 12.0 63 4.0 ESE 7 15 4 8 1016.1 1015.9 0.0
27/12:30pm 18.5 17.3 11.6 64 3.8 ESE 9 15 5 8 1016.4 1016.2 0.0
27/12:00pm 18.2 17.3 11.3 64 3.8 ESE 7 13 4 7 1016.6 1016.4 0.0
27/11:30am 18.1 17.2 11.2 64 3.8 ESE 7 15 4 8 1016.7 1016.5 0.0
27/11:00am 18.1 17.1 11.0 63 3.8 ESE 7 13 4 7 1016.7 1016.5 0.0
27/10:30am 19.1 17.8 11.2 60 4.3 ESE 9 15 5 8 1016.6 1016.4 0.0
27/10:00am 19.0 18.2 11.1 60 4.3 SE 6 11 3 6 1016.8 1016.6 0.0
27/09:30am 17.4 16.5 10.8 65 3.6 ESE 6 11 3 6 1016.6 1016.4 0.0
27/09:00am 16.4 16.1 11.3 72 2.8 S 4 6 2 3 1016.8 1016.6 0.0
27/08:30am 16.0 15.7 11.4 74 2.5 S 4 4 2 2 1016.6 1016.4 0.0
27/08:00am 15.6 15.7 10.2 70 2.8 CALM 0 0 0 0 1016.5 1016.3 0.0
27/07:30am 15.1 15.2 10.1 72 2.6 CALM 0 0 0 0 1016.2 1016.0 0.0
27/07:00am 14.4 14.8 11.2 81 1.7 CALM 0 0 0 0 1016.1 1015.9 0.0
27/06:30am 13.8 14.2 11.1 84 1.4 CALM 0 0 0 0 1016.2 1016.0 0.0
27/06:00am 14.0 14.2 10.6 80 1.8 CALM 0 0 0 0 1016.0 1015.8 0.0
27/05:30am 14.2 14.5 10.8 80 1.8 CALM 0 0 0 0 1015.8 1015.6 0.0
27/05:00am 13.9 14.1 10.7 81 1.7 CALM 0 2 0 1 1015.8 1015.6 0.0
27/04:30am 14.3 14.5 10.5 78 2.0 CALM 0 0 0 0 1015.8 1015.6 0.0
27/04:00am 14.2 14.5 11.0 81 1.7 CALM 0 0 0 0 1016.0 1015.8 0.0
27/03:30am 14.3 14.6 10.9 80 1.8 CALM 0 0 0 0 1016.2 1016.0 0.0
27/03:00am 14.4 14.2 10.4 77 2.1 N 2 2 1 1 1016.5 1016.3 0.0
27/02:30am 14.3 14.2 10.7 79 1.9 NNE 2 4 1 2 1016.9 1016.7 0.0
27/02:00am 14.2 14.5 10.8 80 1.8 CALM 0 0 0 0 1017.0 1016.8 0.0
27/01:30am 14.7 14.7 9.9 73 2.5 CALM 0 0 0 0 1017.2 1017.0 0.0
27/01:00am 14.8 15.1 10.8 77 2.1 CALM 0 0 0 0 1017.4 1017.2 0.0
27/12:30am 14.9 15.0 10.1 73 2.5 CALM 0 0 0 0 1017.4 1017.2 0.0
27/12:00am 15.1 15.1 9.7 70 2.8 CALM 0 2 0 1 1017.7 1017.5 0.0
 
Date/Time
EDT
Temp
°C
App
Temp
°C
Dew
Point
Rel
Hum
%
Delta-T
°C
Wind Press
QNH
hPa
Press
MSL
hPa
Rain
since 9 am
mm
Dir
 
Spd
km/h
Gust
km/h
Spd
kts
Gust
kts
26/11:30pm 15.2 14.8 9.8 70 2.8 NE 2 4 1 2 1017.8 1017.6 0.0
26/11:00pm 15.2 14.9 10.0 71 2.7 NE 2 4 1 2 1017.9 1017.7 0.0
26/10:30pm 15.1 14.9 10.3 73 2.5 ENE 2 4 1 2 1018.0 1017.8 0.0
26/10:00pm 15.4 15.1 10.2 71 2.7 NE 2 6 1 3 1018.1 1017.9 0.0
26/09:30pm 15.5 15.2 10.1 70 2.8 NE 2 2 1 1 1018.0 1017.8 0.0
26/09:00pm 15.9 15.1 9.6 66 3.3 E 4 6 2 3 1017.7 1017.5 0.0
26/08:30pm 16.0 15.1 9.2 64 3.5 E 4 6 2 3 1017.6 1017.4 0.0
26/08:00pm 16.2 15.3 9.4 64 3.5 ESE 4 7 2 4 1017.3 1017.1 0.0
26/07:30pm 16.5 15.6 9.2 62 3.8 SE 4 6 2 3 1016.9 1016.7 0.0
26/07:00pm 16.7 15.5 9.4 62 3.8 SSE 6 13 3 7 1016.6 1016.4 0.0
26/06:30pm 16.9 15.3 8.6 58 4.3 SE 7 15 4 8 1016.3 1016.1 0.0
26/06:00pm 17.3 15.2 8.4 56 4.6 SSE 9 15 5 8 1016.1 1015.9 0.0
26/05:30pm 17.7 15.3 8.6 55 4.7 S 11 15 6 8 1015.9 1015.7 0.0
26/05:00pm 18.6 16.9 9.7 56 4.7 SE 9 24 5 13 1016.0 1015.8 0.0
26/04:30pm 18.6 16.3 9.1 54 5.0 SSE 11 17 6 9 1016.2 1016.0 0.0
26/04:00pm 19.0 16.7 8.9 52 5.3 SSE 11 19 6 10 1016.1 1015.9 0.0
26/03:30pm 19.1 16.2 8.1 49 5.7 S 13 22 7 12 1016.2 1016.0 0.0
26/03:00pm 19.3 16.4 8.0 48 5.8 SSE 13 24 7 13 1016.2 1016.0 0.0
26/02:30pm 18.0 14.2 7.7 51 5.2 SSW 17 28 9 15 1016.2 1016.0 0.0
26/02:00pm 18.6 15.4 8.6 52 5.2 SSW 15 24 8 13 1016.3 1016.1 0.0
26/01:30pm 17.9 15.5 7.0 49 5.5 SSW 9 19 5 10 1016.4 1016.2 0.0
26/01:00pm 18.3 15.4 8.0 51 5.3 SW 13 24 7 13 1016.5 1016.3 0.0
26/12:30pm 17.9 15.5 8.5 54 4.9 SSW 11 19 6 10 1016.6 1016.4 0.0
26/12:00pm 19.3 17.2 8.3 49 5.7 SW 9 15 5 8 1016.5 1016.3 0.0
26/11:30am 18.0 16.0 7.1 49 5.5 SW 7 13 4 7 1016.5 1016.3 0.0
26/11:00am 18.1 15.8 7.5 50 5.4 SW 9 20 5 11 1016.5 1016.3 0.0
26/10:30am 17.7 15.8 6.6 48 5.5 WNW 6 13 3 7 1016.6 1016.4 0.0
26/10:00am 16.9 14.4 6.7 51 5.0 WNW 9 15 5 8 1016.6 1016.4 0.0
26/09:30am 16.7 14.7 8.7 59 4.1 W 9 15 5 8 1016.6 1016.4 0.0
26/09:00am 15.5 12.5 7.8 60 3.9 W 13 19 7 10 1016.5 1016.3 0.0
26/08:30am 15.3 12.7 7.6 60 3.8 W 11 19 6 10 1016.3 1016.1 0.0
26/08:00am 14.6 12.3 7.4 62 3.6 WNW 9 13 5 7 1015.8 1015.6 0.0
26/07:30am 13.8 12.0 7.3 65 3.2 NW 6 9 3 5 1015.6 1015.4 0.0
26/07:00am 13.1 11.3 7.1 67 2.9 NNW 6 9 3 5 1015.4 1015.2 0.0
26/06:30am 12.7 11.2 7.0 68 2.8 NW 4 6 2 3 1015.1 1014.9 0.0
26/06:00am 12.9 11.0 6.9 67 2.9 NW 6 7 3 4 1014.7 1014.5 0.0
26/05:30am 13.1 11.2 6.9 66 3.0 NW 6 9 3 5 1014.4 1014.2 0.0
26/05:00am 13.1 11.2 6.9 66 3.0 NW 6 9 3 5 1013.9 1013.7 0.0
26/04:30am 13.2 11.4 7.0 66 3.0 WNW 6 7 3 4 1013.7 1013.5 0.0
26/04:00am 13.4 11.4 7.0 65 3.1 WNW 7 9 4 5 1013.5 1013.3 0.0
26/03:30am 13.7 11.6 6.8 63 3.3 WNW 7 15 4 8 1013.5 1013.3 0.0
26/03:00am 13.8 11.8 6.9 63 3.4 WNW 7 13 4 7 1013.3 1013.1 0.0
26/02:30am 14.1 11.6 6.7 61 3.6 WNW 9 15 5 8 1013.3 1013.1 0.0
26/02:00am 14.3 12.2 6.6 60 3.7 WNW 7 11 4 6 1013.3 1013.1 0.0
26/01:30am 14.5 12.0 6.6 59 3.8 WNW 9 13 5 7 1013.2 1013.0 0.0
26/01:00am 14.7 12.1 6.3 57 4.1 WNW 9 13 5 7 1013.1 1012.9 0.0
26/12:30am 14.9 12.8 6.7 58 4.0 WNW 7 13 4 7 1013.1 1012.9 0.0
26/12:00am 15.4 13.5 7.7 60 3.8 WSW 7 9 4 5 1012.9 1012.7 0.0
 
Date/Time
EDT
Temp
°C
App
Temp
°C
Dew
Point
Rel
Hum
%
Delta-T
°C
Wind Press
QNH
hPa
Press
MSL
hPa
Rain
since 9 am
mm
Dir
 
Spd
km/h
Gust
km/h
Spd
kts
Gust
kts
25/11:30pm 15.7 13.0 7.5 58 4.1 WSW 11 17 6 9 1012.9 1012.7 0.0
25/11:00pm 15.9 12.9 7.7 58 4.1 WSW 13 19 7 10 1012.8 1012.6 0.0
25/10:30pm 16.1 13.2 8.1 59 4.1 SW 13 20 7 11 1012.6 1012.4 0.0
25/10:00pm 16.1 13.4 8.8 62 3.8 SW 13 20 7 11 1012.3 1012.1 0.0
25/09:30pm 16.1 13.0 8.8 62 3.7 SW 15 30 8 16 1012.1 1011.9 0.0
25/09:00pm 16.2 13.7 9.6 65 3.4 SW 13 19 7 10 1011.5 1011.3 0.0
25/08:30pm 16.5 14.3 9.2 62 3.8 SW 11 28 6 15 1010.8 1010.6 0.0
25/08:00pm 16.5 14.3 9.4 63 3.7 SW 11 19 6 10 1010.5 1010.3 0.0
25/07:30pm 16.4 13.2 10.0 66 3.4 SSW 17 26 9 14 1010.2 1010.0 0.0
25/07:00pm 16.7 12.6 10.1 65 3.5 SSW 22 33 12 18 1009.8 1009.6 0.0
25/06:30pm 16.9 15.0 10.5 66 3.4 SSW 11 19 6 10 1009.2 1008.9 0.0
25/06:00pm 17.0 14.8 10.8 67 3.3 SW 13 24 7 13 1008.9 1008.6 0.0
25/05:30pm 17.3 13.7 10.7 65 3.5 SW 20 32 11 17 1008.4 1008.1 0.0
25/05:00pm 17.8 15.9 10.4 62 4.0 SSW 11 19 6 10 1007.9 1007.6 0.0
25/04:30pm 18.1 15.2 11.0 63 3.9 SSW 17 26 9 14 1007.6 1007.3 0.0
25/04:00pm 17.9 16.8 12.1 69 3.2 SSW 9 17 5 9 1007.4 1007.1 0.0
25/03:30pm 17.4 15.2 12.1 71 2.9 SSW 15 20 8 11 1007.0 1006.8 0.0

Other Formats:

Comma delimited format used in spreadsheet applications
http://www.bom.gov.au/fwo/IDV60801/IDV60801.95918.axf

JavaScript Object Notation format (JSON) in row-major order
http://www.bom.gov.au/fwo/IDV60801/IDV60801.95918.json